SMRA70 UAOL 242100
AAXX 24211
71001 45966 01117 10051 21047 39160 40125 57021 333 6///7=
71002 45666 82911 10072 21012 39587 40121 52016 333 6///7=
71003 47366 82512 10010 20002 39779 40159 52005 7414/ 333 6///7=
71005 26/// ///// 10192 21039 333 60007=
71006 26/// /2312 10192 21058 333 60007=
71007 26/// ///// 10221 21096 333 60007=
71008 26/// /2311 10216 21087 333 60007=
71011 26/// ///// 10184 21031 333 60007=
71012 26/// /2317 10208 21078 333 60007=
71013 26/// ///// 10191 21026 333 60007=
71014 26/// /1908 10183 21036 333 60007=
71017 26/// /3015 11171 21201 30120 40135 53005 333 60007=
71018 26/// /0607 11177 21202 39987 40076 53010 333 60007=
71022 45366 83005 10093 20070 30251 40295 52004 333 6///7=
71023 25964 02411 10186 21082 39411 40170 56029 333 69957=
71024 26/// /2608 10136 21028 39789 40143 57010 333 60007=
71026 26/// /2217 10204 21099 39380 40228 58033 333 60007=
71027 26/// /2507 10171 21062 30191 40203 56008 333 60007=
71028 26/// /1804 10167 21091 39217 40251 56022 333 60007=
71029 26/// /0208 11122 21160 30159 40199 55000 333 60007=
71030 26/// /2312 10098 20013 30155 40252 56010 333 60007=
71035 26/// /1210 10162 20022 333 60007=
71036 45966 02812 10159 21038 39894 40270 57033 333 6///7=
71038 26/// /2407 10186 21053 30130 40183 56016 333 60007=
71040 46/// /2909 10177 21079 39968 40163 56014 333 6///7=
71041 45966 02312 10176 21009 30078 40219 57009 333 6///7=
71042 26/// /3003 10193 20052 30214 40218 58017 333 60007=
71057 46/// /1709 10215 21087 333 6///7=
71059 45/// ///// 11146 30108 40201 53004 333 6///7=
71061 26/// /2306 10193 21017 39415 40175 58026 333 60007=
71063 26/// /2111 10176 20053 30095 40190 56011 333 60007=
71064 464// 8//// 11164 21202 39959 40181 54000 333 6///7=
71065 26/// ///// 10193 21059 333 60007=
71070 26/// ///// 10190 21067 333 60007=
71088 469// /1709 11151 21199 30042 40097 57006 333 6///7=
71089 26/// ///// 10202 21070 333 60007=
71099 45966 03104 11009 21108 30230 40251 333 6///7=
71110 26/// /2415 30162 56011 333 60007=
71118 26/// /2313 10198 21092 39388 40205 56023 333 60007=
71144 26/// /2404 10025 21011 39985 40300 58021 333 60007=
71149 26/// /1404 10131 21038 39847 40280 57030 333 60007=
71152 26/// /1206 10042 20012 30203 40216 56011 333 60007=
71156 26/// /1903 10156 21093 39121 40213 58022 333 60007=
71159 26/// /2604 10061 21022 30122 40195 56006 333 60007=
71171 27/// /1905 10141 20088 30091 40186 56012 7//4/ 333 69937=
71172 26/// ///// 10115 20053 39959 40175 58013 333 60007=
71174 45566 81106 11032 21052 30144 40158 57024 333 6///7=
71175 26/// /2212 10128 21022 30190 40225 56006 333 60007=
71178 26/// /2417 10086 21020 30155 40187 58010 333 60007=
71179 45/// ///// 39272 50008 333 6///7=
71181 25/// ///// 30171 56007 333 60007=
71190 46/// /1107 10085 20000 333 6///7=
71192 45966 03304 10156 21025 39580 40239 57019 333 6///7=
71195 26/// /1016 10049 21043 39171 40136 58021 333 60007=
71198 46/// /2208 10188 20031 333 6///7=
71199 26/// /2615 10062 21051 39374 40205 53002 333 60007=
71204 26/// /2214 10155 21081 39288 40277 56025 333 60007=
71209 46/// /3109 10115 20089 333 6///7=
71212 26/// /2207 10125 21045 39399 40204 55008 333 60007=
71213 26/// /1306 10114 20026 39864 40162 56018 333 60007=
71217 26/// /1106 10222 21076 333 60007=
71219 26/// /2604 10076 20062 30284 40292 51005 333 60007=
71227 26/// /2208 10169 21008 333 60007=
71228 46/// /2707 10195 21043 333 6///7=
71233 26/// /2305 10198 21084 333 60007=
71237 26/// /2305 10206 21028 333 60007=
71264 26/// /2213 10126 21034 30220 40252 56013 333 60007=
71267 45966 02412 10230 21103 39140 40222 57028 333 6///7=
71268 26/// /2302 10114 21013 39620 40239 58015 333 60007=
71274 26/// /2409 10181 21043 333 60007=
71275 26/// /2312 10187 21019 333 60007=
71277 26/// /2206 10082 21036 333 60007=
71279 26/// /2306 10096 21027 30069 40134 56002 333 60007=
71291 26/// /0014 10049 21039 39944 40234 53012 333 60007=
71292 45966 02513 10160 21021 39658 40267 57026 333 6///7=
71293 47558 82905 11177 21216 30087 40100 57008 704// 333 6///7=
71294 26/// /1905 10149 20052 39796 40197 56012 333 60007=
71295 26/// /3506 10050 21068 39830 40281 58007 333 60007=
71296 26/// /1608 10148 20049 39883 40186 56010 333 60007=
71297 26/// /1806 10145 20081 30064 40186 55015 333 60007=
71298 26/// /0903 10107 20096 39933 40159 58016 333 60047=
71299 46/// /3613 10087 21012 39902 40169 55005 333 6///7=
71300 26/// /2305 10175 20017 30076 40197 56014 333 60007=
71301 26/// ///// 10160 21043 39766 40159 56015 333 60007=
71302 26/// /3305 10131 21054 39427 40242 58011 333 60007=
71303 46/// ///// 10075 20069 39948 40162 58020 333 6///7=
71304 26/// /2417 10160 21086 38800 40242 58022 333 60007=
71305 45966 72617 10145 21010 39812 40097 57002 333 6///7=
71306 45966 00114 11087 21116 30152 40185 52015 333 6///7=
71307 26/// /1107 10101 20088 39932 40181 58014 333 60007=
71308 26/// /2012 10177 21008 30138 40222 56009 333 60007=
71309 26/// /2808 10055 21042 30192 40204 53004 333 60007=
71310 26/// /2216 10174 21031 30170 40207 56010 333 60007=
71311 26/// /2319 10131 21026 30202 40227 56009 333 60007=
71312 26/// /2217 10161 20028 39756 40211 58035 333 60007=
71314 26/// /1707 10145 20070 39840 40190 56010 333 60007=
71315 26/// /2510 10178 21065 30112 40165 56011 333 60007=
71316 26/// /2615 10190 21068 39498 40172 56026 333 60007=
71317 26/// /2515 10180 21059 30182 40229 56014 333 60007=
71318 26/// /2013 10192 21047 39279 40219 58024 333 60007=
71320 26/// /2704 11179 21212 30091 40092 56008 333 60007=
71321 26/// /3414 11152 21187 30118 40163 53001 333 60007=
71322 26/// /1106 11030 21048 30143 40156 58025 333 60007=
71324 26/// /2324 10099 21009 30205 40242 56016 333 60007=
71327 26/// /2211 10120 21024 30177 40240 56013 333 60007=
71328 46/// /2210 10138 21031 333 6///7=
71331 26/// /1910 10142 21027 39795 40162 58049 333 60007=
71332 26/// /3301 11167 21205 30164 40194 53005 333 60007=
71334 26/// /1909 10048 21036 39825 40155 58047 333 60007=
71335 461// 2//// 11064 21066 39475 40116 52014 333 6///7=
71337 26/// /2412 10107 21063 39902 40137 58016 333 60007=
71338 45966 02902 11156 21193 30102 40110 52008 333 6///7=
71339 45966 02308 10078 21019 30083 40096 57009 333 6///7=
71346 26/// /2215 10240 21116 333 60007=
71347 26/// /2614 10095 21008 333 60007=
71349 26/// /2511 10186 21032 333 60007=
71352 26/// /1508 10139 20055 39737 40187 57020 333 60007=
71355 26/// /3301 11224 21251 30014 40102 55002 333 60007=
71356 26/// /3204 11158 21203 30098 40166 58014 333 60007=
71357 26/// /2802 11137 21205 30105 40112 52008 333 60007=
71358 26/// /1002 11170 21210 30065 40101 53004 333 60007=
71360 26/// ///// 10200 21060 333 60007=
71361 26/// /2511 10105 20006 39889 40091 51018 333 60007=
71362 26/// /2308 10113 21027 39830 40080 53001 333 60007=
71363 26/// /3113 11197 21216 30067 40123 56004 333 60007=
71364 26/// /1905 10012 21088 39993 40125 57006 333 60007=
71365 26/// /3208 10118 21036 39901 40108 53013 333 60007=
71366 47466 82611 11130 21154 30075 40139 57008 771// 333 6///7=
71367 26/// /2706 10114 21061 39975 40179 55004 333 60007=
71369 45966 02910 10081 21029 39487 40194 57013 333 6///7=
71380 26/// /2310 10176 21049 333 60007=
71393 26/// /2109 10201 21106 38960 40217 56023 333 60007=
71399 26/// ///// 10205 21092 333 60007=
71401 26/// /0004 10205 21064 39574 40253 56040 333 60007=
71405 26/// ///// 10184 21024 333 60007=
71406 26/// /2126 10014 21015 30104 40114 55002 333 60007=
71409 26/// ///// 10204 21106 333 60007=
71413 26/// ///// 10200 21029 333 60007=
71449 26/// /3410 10087 21043 39877 40282 58007 333 60007=
71470 26/// /0510 11140 21159 39525 40166 52005 333 60007=
71471 45966 22714 10131 20005 39418 40201 57008 333 6///7=
71480 26/// /2802 10027 21079 30024 40144 52001 333 60007=
71489 26/// /2215 10186 21022 39431 40217 58028 333 60007=
71491 26/// /1305 10031 21054 30035 40140 58006 333 60007=
71493 26/// /2711 10132 21050 30200 40239 56012 333 60007=
71494 26/// /2406 10170 21001 39688 40206 56013 333 60007=
71495 26/// /2320 10187 21143 333 60007=
71497 46/// /2609 10133 21056 39873 40134 51008 333 6///7=
71500 46/// /3006 10191 21077 333 6///7=
71509 26/// /2213 10220 21123 333 60007=
71515 26/// /2413 10168 21044 39568 40271 56028 333 60007=
71517 26/// /2513 10224 21128 333 60007=
71518 26/// /2315 10227 21086 333 60007=
71519 26/// /1914 10204 21075 333 60007=
71525 26/// /2018 10210 21067 333 60007=
71526 46/// /2008 10182 21059 333 6///7=
71528 26/// /2314 10217 21055 333 60007=
71532 45966 71607 10164 20052 39843 40185 57014 333 6///7=
71533 26/// /2910 10160 20035 30197 40241 56013 333 60007=
71534 25764 81709 10154 20065 39916 40186 56011 333 60007=
71535 26/// /2017 10224 21076 333 60007=
71537 46/// /1816 10221 21057 333 6///7=
71539 26/// /2317 10191 21085 39575 40273 58029 333 60007=
71540 26/// /1405 10140 20009 333 60007=
71541 26/// /2508 10097 21018 333 60007=
71544 26/// ///// 10177 21040 333 60007=
71545 46/// ///// 10191 21038 333 6///7=
71548 26/// ///// 10177 21084 333 60007=
71553 26/// /2512 10145 21031 39608 40265 56027 333 60007=
71554 26/// /2209 10100 20017 30162 40168 56014 333 60007=
71555 26/// /2510 10204 21132 38682 40223 56019 333 60007=
71556 26/// /2516 10191 21035 39648 40253 57027 333 60007=
71557 26/// /1102 10204 21020 333 60007=
71558 26/// ///// 10045 21027 30082 40119 55001 333 60007=
71559 26/// /2408 10153 21074 39592 40298 57025 333 60007=
71560 26/// /3512 10110 21047 39994 40288 58012 333 60007=
71565 26/// /1806 10162 21023 333 60007=
71566 26/// /2704 10196 21070 333 60007=
71568 26/// /3017 10116 20058 30226 40232 57020 333 60007=
71570 26/// ///// 10069 21076 39984 40301 58013 333 60007=
71572 26/// /2209 10038 21029 39985 40219 58041 333 60007=
71575 26/// /2810 11134 21160 30070 40137 57009 333 60007=
71576 26/// /2005 11237 21280 30031 40120 52004 333 60007=
71580 42566 73113 11193 21237 30068 40106 55001 333 6///7=
71581 26/// /1702 10149 20032 39706 40186 58013 333 60007=
71582 45966 03305 10125 20037 30216 40269 54000 333 6///7=
71584 45966 22311 10052 21013 30090 40137 57005 333 6///7=
71590 26/// ///// 10188 21011 39989 40179 56016 333 60007=
71594 26/// /3112 10133 21058 39711 40171 55001 333 60007=
71595 25966 02319 10075 20011 30273 40275 57012 333 60007=
71596 26/// /2305 10075 21005 30203 40222 56010 333 60007=
71598 26/// /2507 10171 21072 30165 40171 56006 333 60007=
71602 46/// /1608 10128 20067 39889 40185 56014 333 6///7=
71606 26/// /2108 10205 21028 30018 40206 56018 333 60007=
71613 26/// /1203 11212 21267 30076 40090 53003 333 60007=
71622 26/// ///// 10116 20083 39852 40187 56013 333 60007=
71635 26/// /2205 10197 20037 30087 40188 56015 333 60007=
71636 26/// /2509 10192 21086 39413 40183 58027 333 60007=
71637 26/// /2309 10171 20003 39385 40203 58023 333 60007=
71640 26/// /2704 10114 21029 39693 40179 58006 333 60007=
71644 26/// ///// 10186 21024 39702 40247 58035 333 60007=
71645 46/// /2406 10195 21066 39680 40209 57033 333 6///7=
71646 26/// /0211 10098 21067 39987 40294 58015 333 60007=
71652 45566 83412 10002 21054 30010 40238 52013 333 6///7=
71653 45562 8//// 11010 21060 30203 40215 52013 333 6///7=
71654 26/// /2814 10180 21055 39431 40161 56027 333 60007=
71655 26/// /2512 10156 21013 39561 40230 57027 333 60007=
71656 26/// /2020 10132 20003 30152 40224 55004 333 60007=
71658 26/// /2209 10147 21008 30086 40153 56011 333 60007=
71659 26/// /2107 10133 21030 30158 40160 56013 333 60007=
71660 26/// /0906 10169 21060 39174 40242 56036 333 60007=
71663 26/// /2615 10196 21019 39434 40175 56029 333 60007=
71664 45966 41908 10197 21043 39375 40189 57026 333 6///7=
71665 26/// /0706 10008 21003 30077 40087 53014 333 60007=
71666 26/// /2311 10199 21038 30147 40191 56014 333 60007=
71667 26/// /3515 10103 21038 39973 40219 55002 333 69907=
71668 26/// /2610 10211 21041 30158 40201 56017 333 60007=
71670 26/// /2307 10201 21061 30165 40191 56013 333 60007=
71671 26/// /2409 10194 21083 30168 40228 56013 333 60007=
71672 46/// /1604 10157 20063 39929 40192 333 6///7=
71674 26/// /2111 10196 21063 333 60007=
71678 45966 02407 10041 21057 39923 40274 57009 333 6///7=
71679 26/// /2805 10046 21019 39240 40267 55003 333 60007=
71681 26/// /2701 10175 21035 39833 40226 58035 333 60007=
71684 45966 21207 10115 20031 39865 40163 57018 333 6///7=
71685 45966 01808 10165 21014 39718 40256 57044 333 6///7=
71686 45666 82508 10057 21024 39282 40238 54000 333 6///7=
71687 26/// ///// 10204 21031 39450 40225 57019 333 60007=
71688 26/// /2003 10168 21048 39200 40227 56011 333 60007=
71689 45966 42618 10191 21034 39679 40125 57019 333 6///7=
71690 26/// ///// 10088 21030 333 60007=
71691 45966 02525 10070 21009 30124 40151 57012 333 6///7=
71692 46/// /2306 333 6///7=
71693 26/// /2909 10081 21031 39492 40197 56013 333 60007=
71694 26/// /2204 10157 20032 39836 40197 56016 333 60007=
71695 26/// /1614 10123 21020 39878 40212 58046 333 60007=
71696 26/// /2112 10031 21035 30147 40184 58031 333 60007=
71697 45866 81704 10153 20038 30024 40194 57017 333 6///7=
71698 26/// /2110 10172 21035 30129 40205 55004 333 60007=
71699 26/// /2110 10095 20038 30233 40240 56011 333 60007=
71704 45966 71514 10147 20068 39953 40171 57010 333 6///7=
71729 26/// /2207 10191 20052 30113 40188 56018 333 60007=
71732 26/// /1709 10171 20028 333 60007=
71741 26/// /2811 10175 20008 39806 40223 56037 333 60007=
71742 26/// ///// 10127 21067 39998 40183 56012 333 60007=
71744 26/// /2512 10182 21053 30139 40180 56012 333 60007=
71746 26/// /1612 10146 20065 39950 40168 56010 333 60007=
71752 26/// /1703 10123 20082 39981 40196 58012 333 60007=
71753 26/// /2707 10182 21044 30196 40225 55005 333 60007=
71754 26/// /2316 10202 21030 39556 40215 58030 333 60007=
71756 26/// /3102 10158 21056 39144 40226 56013 333 60007=
71758 26/// /2313 10174 21032 30139 40215 56005 333 60007=
71765 26/// /3001 10195 21007 39945 40217 58040 333 60007=
71766 26/// /3306 10165 20015 30155 40226 58018 333 60007=
71767 26/// /2301 10116 20063 39922 40181 58011 333 60007=
71773 26/// /1908 10081 21069 39336 40188 51002 333 60007=
71779 26/// /3103 10159 21033 39578 40236 58018 333 60007=
71787 26/// /2011 10116 21016 39744 40230 56010 333 60007=
71789 26/// /2121 10214 21097 333 60007=
71791 26/// /2518 10200 21083 333 60007=
71792 26/// ///// 10185 21048 333 60007=
71793 26/// /2118 10206 21063 333 60007=
71794 26/// ///// 10199 21066 333 60007=
71795 26/// /2118 10204 21079 333 60007=
71797 26/// ///// 10191 21027 333 60007=
71833 46/// /1606 10144 20055 333 6///7=
71835 26/// /3405 10024 21074 39775 40259 58002 333 60007=
71849 26/// /3407 10101 21056 39998 40296 58019 333 60007=
71914 26/// /0002 10167 20014 39996 40215 58013 333 60007=
71921 45566 82810 10033 20000 39489 40123 52016 333 6///7=
71927 26/// /0304 10198 20015 30164 40219 58016 333 60007=
71941 45966 21908 10152 21060 39760 40172 57013 333 6///7=
71942 26/// /1303 10103 21014 30090 40164 55016 333 60007=
71947 45966 03510 10108 21004 39828 40171 57006 333 6///7=
71962 46/// /3512 10050 21058 39847 40275 53004 333 6///7=
71970 26/// /2516 10194 20006 39599 40178 58031 333 60007=
71971 26/// /2401 11161 21208 30021 40067 52006 333 60007=
71973 46/// ///// 10105 21064 39995 40182 55006 333 6///7=
71987 26/// /2216 10121 21022 30165 40174 56014 333 60007=
71989 26/// /1907 11161 21176 30167 40184 55002 333 60007=
71999 46/// ///// 10190 21011 39935 40226 58038 333 6///7=
73001 26/// /2509 10185 21047 39578 40278 58030 333 60007=
73002 26/// /2411 10189 21026 39686 40202 58033 333 60007=
73005 26/// /2804 10178 21077 30011 40163 58005 333 60007=
73011 26/// /2506 10143 21028 39687 40158 56011 333 60007=
73016 26/// /2111 10112 21003 39741 40187 57011 333 60007=
73018 26/// /0006 10081 21045 39858 40212 51006 333 60007=
73025 26/// /2318 10074 20006 30277 40283 56011 333 60007=
73026 26/// /1207 10047 21003 30165 40215 56009 333 60007=
73027 26/// /2107 10183 21081 30151 40218 56014 333 60007=
73029 26/// ///// 10137 21021 333 60007=
73030 46/// /2214 10076 21042 30189 40205 56013 333 6///7=
76040 32960 01003 10352 20167 30102 40115 57021 92055 333 30/// 59040 98660=
76055 32880 30604 10279 20207 30089 40108 57014 83030 92045 333 30/// 56060 58/// 83357=
76113 32980 02101 10342 20070 39649 40090 57021 92045 333 30/// 59008=
76117 22/// ///// 1//// 2//// 3//// 4//// 5//// 7//// 8//// 9//// 333 0//// 30/// 4//// 54/// 56/// 57/// 5//// 6//// 8//// 8//// 8//// 9//// 9//// 9//// 444 ///// 555 3////=
76122 32870 50000 10288 20039 38462 40008 57022 84042 92045 333 30/// 56055 59003 84358=
76123 26/// /3501 10292 20036 38538 40047 56023 6 7 8 92050 333 0 1 2 30/// 4 59002 54 55 2 56 57 58 59 60007 7 8 8 8 9 9 9 444 555 1 30308=
76160 32562 12303 10380 20079 39869 40102 57018 81500 92045 333 30/// 56900 59005 81630=
76161 26/// /2404 10384 21053 39869 40102 58018 7//// 8//// 92050 333 0//// 30/// 4//// 54/// 56/// 57/// 59005 60007 8//// 8//// 8//// 9//// 9//// 9//// 444 ///// 555 30323=
76219 26/// /3002 10274 21105 38151 40034 57018 6 7 8 92050 333 0 1 2 30/// 4 59002 54 55 2 56 57 58 59 60007 7 8 8 8 9 9 9 444 555 1 30295=
76220 31720 72802 10252 20099 38146 40119 57026 70200 81148 92045 333 30/// 56666 59010 81856 83359=
76225 32960 52103 10315 20032 38598 40048 57024 85070 92050 333 30/// 54505 56050 59007 85361=
76242 26/// /1603 10354 20167 39837 40064 57026 7//// 8//// 92050 333 0//// 30/// 4//// 54/// 56/// 57/// 59022 60007 8//// 8//// 8//// 9//// 9//// 9//// 444 ///// 555 30311=
76243 32950 61602 10350 20169 39865 40148 57034 80006 92045 333 30/// 56006 59026 86070=
76253 32881 40202 10304 20047 30052 40140 56008 84030 92050 333 30/// 56070 58000 84358 92000=
76254 26/// /0203 10323 21021 30039 40133 58011 7//// 8//// 92050 333 0//// 30/// 4//// 54/// 56/// 57/// 59002 60007 8//// 8//// 8//// 9//// 9//// 9//// 444 /////=
76255 26/// /2305 10342 20026 30108 40124 57014 7//// 8//// 92050 333 0//// 30/// 4//// 54/// 56/// 57/// 59001 60007 8//// 8//// 8//// 9//// 9//// 9//// 444 ///// 555 30291=
76256 32980 22305 10350 20063 30114 40128 57010 80006 92045 333 30/// 56005 59005 82070=
76258 32975 32509 10372 21023 30068 40112 57014 80004 92050 333 30/// 56007 59001 83075=
76304 26/// /0502 10322 20091 30117 40126 57013 7//// 8//// 92050 333 0//// 30/// 4//// 54/// 56/// 57/// 59005 60007 8//// 8//// 8//// 9//// 9//// 9//// 444 ///// 555 30304=
76305 32970 70602 10317 20084 30117 40125 57001 87030 92050 333 30/// 56050 58002 87360=
76311 32980 23401 10406 20265 39824 40092 57018 80004 92050 333 30/// 56005 59005 82070=
76312 26/// /2603 10405 21029 39837 40094 56019 6 7 8 92050 333 0 1 2 30/// 4 59001 54 55 2 56 57 58 59 60007 7 8 8 8 9 9 9 444 555 1 30492=
76323 32960 63303 10330 21035 38262 40110 57026 80008 92045 333 30/// 56005 58003 86269=
76342 31562 30506 10318 20170 39458 40142 57028 70321 83200 92047 333 30/// 56100 59011 83920=
76373 32660 33004 10320 21085 38184 40124 57032 81104 92050 333 30/// 56909 58/// 81840=
76382 32480 60202 10337 20167 38869 40058 57031 85401 92050 333 30/// 56505 58002 85610=
76383 26/// /0203 10344 20107 38875 40036 56032 6 7 8 92050 333 0 1 2 30/// 4 58000 54 55 2 56 57 58 59 60007 7 8 8 8 9 9 9 444 555 1 30368=
76390 21564 70902 10162 20131 38236 40107 57010 76066 8597/ 92050 333 31/// 56379 59001 60117 85930=
76392 26/// /1005 10273 20197 39564 40124 58029 7//// 8//// 92050 333 0//// 30/// 56/// 57/// 59025 60007 8//// 8//// 8//// 8//// 9//// 9//// 9//// 555 30278=
76393 32550 51203 10260 20207 39564 40128 57035 85500 92050 333 30/// 56300 59022 85622=
76402 31860 52907 10326 20019 30075 40131 57014 70744 85030 92045 333 30/// 56050 58004 85358 91012=
76403 26/// /2807 10328 20035 30077 40131 57016 6 7 8 92050 333 0 1 2 30/// 4 58005 54 55 2 56 57 58 59 60007 7 8 8 8 9 9 9 444 555 1 30368=
76404 26/// /3203 10362 20010 30099 40120 58016 6 7 8 92050 333 0 1 2 30/// 4 59004 54 55 2 56 57 58 59 60007 7 8 8 8 9 9 9 444 555 1 30367=
76405 32880 63204 10349 20111 30102 40122 56013 83018 92050 333 30/// 56055 59004 83458 83269=
76412 32966 42301 10320 20154 30098 40143 57021 84050 92047 333 30/// 56050 58003 84356=
76413 26/// /2403 10328 20170 30098 40109 57021 6 7 8 92050 333 0 1 2 30/// 4 58002 54 55 2 56 57 58 59 60007 7 8 8 8 9 9 9 444 555 1 30366=
76423 32580 80000 10308 20056 38140 40060 57030 85434 92052 333 30/// 56900 59001 85630=
76424 26/// /2101 10319 20010 38142 40037 57027 7//// 8//// 92050 333 0//// 30/// 4//// 54/// 56/// 57/// 58000 60007 8//// 8//// 8//// 9//// 9//// 9//// 444 ///// 555 30264=
76458 32970 62104 10267 20195 30121 40125 57006 80006 92040 333 30/// 56009 58002 86070=
76459 26/// /2103 10265 20182 30122 40125 5//// 6 7 8 92050 333 0 1 2 30/// 4 59007 54 55 2 56 57 58 59 60007 7 8 8 8 9 9 9 444 555 1 30303=
76471 32666 73301 10295 21006 37691 40018 57020 83110 92050 333 30/// 56550 59002 83850 84458 98766=
76491 21560 80000 10260 20255 39775 40157 57024 70252 885// 92050 333 32/// 56999 59012 69967 88625=
76499 21530 81102 10276 20245 30114 40138 57022 75022 88900 92055 333 31/// 56300 59009 69937 88920=
76518 22/// ///// 1//// 2//// 3//// 4//// 5//// 7//// 8//// 9//// 333 0//// 30/// 4//// 54/// 56/// 57/// 5//// 6//// 8//// 8//// 8//// 9//// 9//// 9//// 444 ///// 555 3////=
76519 32960 32403 10348 20013 38357 40094 57016 80001 92050 333 30/// 56006 58010 83070=
76525 32980 52108 10237 21076 37481 40065 57013 80006 92040 333 30/// 56005 58003 85080=
76538 26/// /0402 10272 20089 38141 40068 57032 7//// 8//// 92050 333 0//// 30/// 4//// 54/// 56/// 57/// 59002 60007 8//// 8//// 8//// 9//// 9//// 9//// 444 ///// 555 30224=
76539 31560 72301 10276 20092 38136 40068 52026 70544 87500 92050 333 30/// 56100 58050 87626 91101 91523=
76547 26/// /0904 10275 20220 30136 40149 58019 7//// 8//// 92050 333 0//// 30/// 4//// 54/// 56/// 57/// 58003 60007 8//// 8//// 8//// 9//// 9//// 9//// 444 ///// 555 30296=
76548 31468 80904 10278 20228 30154 40164 57018 70544 83470 92045 333 30/// 56260 58005 83615 85356=
76556 32970 53103 10338 20180 39119 40105 57014 85030 92045 333 30/// 56050 58005 85360=
76557 22/// ///// 1//// 2//// 3//// 4//// 5//// 7//// 8//// 9//// 333 0//// 30/// 4//// 54/// 56/// 57/// 5//// 6//// 8//// 8//// 8//// 9//// 9//// 9//// 444 ///// 555 3////=
76574 26/// /2003 10307 20030 38113 40065 57026 7//// 8//// 92050 333 0//// 30/// 4//// 54/// 56/// 57/// 58006 60007 8//// 8//// 8//// 9//// 9//// 9//// 444 ///// 555 30361=
76577 32570 42303 10311 20124 38034 40057 57027 81507 92045 333 30/// 56105 58009 81632 83283=
76580 26/// /1005 10324 20181 39027 40077 56027 7//// 8//// 92050 333 0//// 30/// 4//// 54/// 56/// 57/// 59001 60007 8//// 8//// 8//// 9//// 9//// 9//// 444 ///// 555 30258=
76581 32872 50906 10310 20230 39001 40065 57019 85060 92050 333 30/// 56020 59003 85358=
76585 21550 73001 10270 20241 39982 40135 57023 76164 878// 92050 333 32/// 56899 59003 60017 87833=
76592 26/// /3404 10320 20247 30130 40134 57016 7//// 8//// 92050 333 0//// 30/// 4//// 54/// 56/// 57/// 58003 60007 8//// 8//// 8//// 9//// 9//// 9//// 444 ///// 555 30329=
76593 32470 43605 10304 20250 30135 40137 57015 83940 92050 333 30/// 56570 58009 82920 81820 91009 91536=
76611 26/// /2802 10331 20021 38456 40021 57029 6 7 8 92050 333 0 1 2 30/// 4 58006 54 55 2 56 57 58 59 60007 7 8 8 8 9 9 9 444 555 1 30364=
76612 32662 62902 10326 20022 38453 40070 57027 82104 92058 333 30/// 56505 58005 82840 84072=
76625 32570 83201 10292 20112 38124 40045 57028 83230 92050 333 30/// 56660 58006 83826 85357=
76626 26/// /3506 10278 20090 38055 40080 56026 7//// 8//// 92050 333 0//// 30/// 4//// 54/// 56/// 57/// 58006 60007 8//// 8//// 8//// 9//// 9//// 9//// 444 ///// 555 30260=
76631 26/// /0302 10237 20096 37700 40108 56018 7//// 8//// 92050 ICE///// 333 0//// 30/// 4//// 54/// 56/// 57/// 580 02 60007 8//// 8//// 8//// 9//// 9//// 9//// 444 ///// 5=
76632 31756 50302 10235 20142 37699 40077 57019 70511 85200 92045 333 30/// 56300 59002 85856 96121=
76634 31468 60903 10210 20150 37861 40112 57014 70511 84420 92050 333 30/// 56550 58002 84615=
76640 31458 41402 10298 20271 30146 40157 57021 70200 83230 92045 333 30/// 56330 59004 83812=
76641 26/// /1301 10299 20236 30132 40143 57021 6 7 8 92050 333 0 1 2 30/// 4 59003 54 55 2 56 57 58 59 60007 7 8 8 8 9 9 9 444 555 1 30304=
76645 26/// /0409 10226 20218 30127 40141 55009 7//// 8//// 333 30/// 56/// 57/// 60037 8//// 8//// 8//// 8//// 9////=
76647 32670 51401 10362 20193 30085 40115 57027 85200 92050 333 30/// 56300 59005 85850=
76653 26/// /2302 10313 20222 30116 40120 58020 6 7 8 92050 333 0 1 2 30/// 4 58007 54 55 2 56 57 58 59 60007 7 8 8 8 9 9 9 444 555 1 30359=
76654 31956 02503 10310 20239 30115 40119 57024 70544 92050 333 30/// 59003=
76656 32575 31602 10332 20024 38495 40081 57030 82208 92043 333 30/// 56505 58008 82820=
76658 31560 22304 10350 20155 39618 40110 57031 70540 81202 92050 333 30/// 56101 58014 81822 94022 98904=
76659 26/// /1804 10346 20143 39606 40088 56023 6 7 8 92050 333 0 1 2 30/// 4 58015 54 55 2 56 57 58 59 60007 7 8 8 8 9 9 9 444 555 1 30400=
76662 32670 41001 10318 20099 38449 40068 57021 84400 92045 333 30/// 56400 58010 84648=
76665 31562 52101 10304 20119 38109 40089 57029 70322 85200 92050 333 30/// 56300 57832 59010 85821=
76674 26/// /1202 10181 20102 37390 40167 55012 7//// 8//// 92050 333 0//// 30/// 54/// 56/// 57/// 58011 60007 8//// 8//// 8//// 9//// 9//// 9//// 444 ///// 555 30191=
76675 21560 71201 10198 20103 37387 40084 57015 76062 87300 92018 333 31/// 56100 58007 69927 85926 82826 98460=
76677 26/// /2607 10219 20077 37819 40066 57019 6 7 8 92050 333 0 1 2 30/// 4 59013 54 55 2 56 57 58 59 60007 7 8 8 8 9 9 9 444 555 1 30228=
76680 21530 83002 10212 20132 37755 40079 56011 75022 88400 92100 333 30/// 56300 58013 69907 83825 85627=
76683 31656 82102 10254 20080 37822 40109 57017 70544 85970 92045 333 30/// 56210 58010 85940 83358=
76684 26/// /0402 10251 20109 37828 40122 55010 7//// 8//// 92050 333 0//// 30/// 4//// 54/// 56/// 57/// 58015 60007 8//// 8//// 8//// 9//// 9//// 9//// 444 ///// 555 30229=
76685 31850 71602 10252 20068 37856 40065 57029 70544 81410 92045 333 30/// 56680 58000 82657 85467=
76686 26/// /1803 10241 20108 37861 40034 57023 6 7 8 92050 333 0 1 2 30/// 4 58004 54 55 2 56 57 58 59 60007 7 8 8 8 9 9 9 444 555 1 30259=
76687 31440 80901 10228 20183 38672 40128 57013 71042 885// 92045 333 30/// 56399 59001 82715 86624 91102 91509=
76688 22/// ///// 1//// 2//// 3//// 4//// 5//// 7//// 8//// 9//// 333 0//// 30/// 4//// 56/// 57/// 5//// 6//// 8//// 8//// 8//// 9//// 9//// 9//// 444 ///// 555 3////=
76692 31556 10506 10286 20237 30121 40138 57023 70544 81200 92045 333 30/// 56800 59003 81833=
76693 /0000 26/// /0605 10293 20235 30118 42/// 57023 60002 7//// 8//// 92050 333 30/// 56/// 57/// 59003 8//// 8//// 9//// 9//// 9////=
76696 26/// /2904 10317 20243 30116 40129 57019 7//// 8//// 92050 333 0//// 30/// 4//// 54/// 56/// 57/// 58006 60007 8//// 8//// 8//// 9//// 9//// 9//// 444 ///// 555 30331=
76737 31475 81003 10230 20180 38779 40136 57015 70222 8562/ 92045 333 30/// 56299 59003 85713 83458 91106 91510=
76741 31458 33607 10298 20269 30104 40122 57019 70544 82230 92050 333 30/// 56800 58001 82812=
76742 26/// /0107 10307 20236 30101 40120 57021 7//// 8//// 92050 333 0//// 30/// 4//// 54/// 56/// 57/// 60007 8//// 8//// 8//// 444 ///// 555 30317=
76743 31658 40502 10357 20243 30111 40119 57021 70222 84200 92045 333 30/// 56000 58004 84846=
76744 26/// /0402 10362 20235 30111 40120 56022 7//// 8//// 92050 333 0//// 30/// 4//// 54/// 56/// 57/// 58005 60007 8//// 8//// 8//// 9//// 9//// 9//// 444 ///// 555 30312=
76750 31560 31204 10330 20243 30127 40137 57018 70100 82401 92050 333 30/// 56306 58004 82620=
76762 31704 32004 10329 20176 38761 40100 58009 70000 92045 333 30/// 56030 58019 83350=
76773 21564 72401 10300 20127 38404 40075 57022 70544 85404 92050 333 30/// 56202 58011 69907 85620=
76775 31561 72401 10323 20243 38500 40091 57031 70522 85908 92045 333 30/// 56806 58003 82824 82926 94092=
76776 26/// /1402 1//// 2//// 3//// 4//// 5//// 6 7 8 92050 333 0 1 2 30/// 4 5 54 55 2 56 57 58 59 60007 7 8 8 8 9 9 9 444 555 1 30327=
76805 31968 12204 10328 20245 30102 40104 57029 70100 80008 92050 333 30/// 56001 58002 81265=
76840 32540 23601 10360 20310 30041 40095 57020 82200 92045 333 30/// 56900 59004 82828=
76842 22/// ///// 1//// 2//// 3//// 4//// 5//// 7//// 8//// 9//// 333 0//// 30/// 4//// 54/// 56/// 57/// 5//// 6//// 8//// 8//// 8//// 9//// 9//// 9//// 444 ///// 555 3////=
76843 32965 03201 10320 20211 39464 40089 57026 92040 333 30/// 59011=
76845 32460 51201 10217 20172 37955 40134 56009 85200 92052 333 30/// 56200 58004 85818=
76846 26/// /2001 10216 20134 37937 40137 57009 7//// 8//// 92050 333 0//// 30/// 4//// 54/// 56/// 57/// 58004 60007 8//// 8//// 8//// 9//// 9//// 9//// 444 ///// 555 30198=
76848 32770 60701 10258 20111 38376 40048 57016 81221 92050 333 30/// 56199 58004 81856 83460=
76849 26/// /0704 10285 20142 38378 40049 56017 7//// 8//// 92050 333 0//// 30/// 4//// 56/// 57/// 58004 60007 8//// 8//// 8//// 9//// 9//// 9//// 444 ///// 555 30249=
76855 32580 12002 10330 20260 30081 40130 57012 81200 92045 333 30/// 56900 58008 81820 92000=
76856 26/// /1903 10325 20250 30055 40103 56017 6 7 8 92050 333 0 1 2 30/// 4 5 54 55 2 56 57 58 59 60007 7 8 8 8 9 9 9 444 555 1 30371=
76903 31580 32603 10342 20252 39970 40103 57022 70100 83200 92040 333 30/// 56700 58006 83833=
78224 43558 63205 10299 20219 30070 40142 55011 86300 333 82920 84840=
78229 32559 53404 10275 20218 30071 40148 52060 82903 333 82918 85190=
78239 31559 40506 10296 20206 30138 40141 57020 70500 82800 333 10316 20238 82820=
78243 42559 50403 10309 20206 30015 40138 57019 85963 333 85920=
78255 42459 32107 10304 20191 39994 40143 57020 83900 333 83918=
78264 31560 22204 10286 20190 30068 40143 57020 70200 82200 333 82820=
78265 31559 20405 10320 20205 30029 40129 57020 70544 82200 333 82825=
78650 32560 22307 10334 20253 40082 57010 8121/ 92040 222// 20604 333 30/// 5687/ 58006 81830=
78655 31675 31007 10339 20183 39370 40036 58035 70544 83200 92046 333 30/// 562// 58000 83833=
78663 31657 31609 10310 20237 3//// 4//// 5//// 70544 83200 92040 333 31/// 563// 58/// 83840=
78670 32/70 02108 10366 20233 40078 57032 92040 333 30/// 58008=
78672 31/65 01307 10374 20188 40073 57038 70400 92040 222// 20602 333 30/// 58007=
78704 31568 70910 10302 20253 30123 40127 57030 70544 82206 333 56200 59014 82824 86075=
78762 31570 80710 10265 20165 39112 400088 57008 71520 84703 333 30/// 56200 58004 81920 81635 83656 85070=
78764 31560 70614 10241 20144 39017 40100 58005 71522 81577 333 30/// 56220 59002 82630 83356 86270=
78767 31565 80608 10294 20239 30101 40106 58018 70522 81134 333 30/// 56000 58007 81830 83363 85074=
78793 31459 81808 10308 20236 30049 40080 57018 71622 85271 333 30/// 568// 52002 85815/=
78862 42580 40808 10263 20201 30128 40151 83202 333 59011 83820=
78906 41578 73102 10276 20203 30130 40135 70422 81842 333 58000 81820 87076=
78925 44586 /0907 10272 20215 40140 56007 700// 333 59009=
78947 42580 71206 10273 20223 30141 40144 70222 81878 333 05295 59005 81824 87277=
78982 42580 20821 10298 20249 40100 57017 81201 333 59004 60007 81820=



SMUS70 KWBC 242100
AAXX 24214
71032 26/// /1303 10216 21063 39398 40214 56038 333 60007=
71039 26/// /1811 10114 21067 39492 40146 58005 333 60007=
71043 42583 72703 10016 21038 30059 40152 50001 333 6///7=
71044 26/// /0506 11002 21085 39780 40098 56016 333 60007=
71045 26/// /2210 10062 21035 39354 40215 50004 333 60007=
71046 45/// /1025 11102 30045 40062 56017 333 6///7=
71048 26/// /2116 10200 21070 333 60007=
71050 26/// /2105 10163 21101 39166 40237 56018 333 60007=
71051 26/// ///// 10191 21073 333 60007=
71055 26/// /0104 11035 21121 39802 40148 50001 333 60007=
71056 26/// /2516 10142 21026 39820 40112 58001 333 60007=
71060 26/// /2406 10162 21147 38685 40204 56024 333 60007=
71062 26/// /2409 10191 21099 39128 40186 56024 333 60007=
71066 45966 03108 10146 21046 39726 40139 57002 333 6///7=
71068 42974 82615 10135 21008 39494 40180 58009 333 6///7=
71072 45766 83515 10105 21026 39974 40221 57002 333 6///7=
71073 46/// /2311 10209 21098 333 6///7=
71075 26/// /1806 10104 21036 39592 40097 56047 333 60007=
71076 26/// /2403 10074 21031 39702 40091 56013 333 60007=
71077 26/// /2404 10174 21050 39619 40151 58028 333 60007=
71078 45966 41914 10100 21015 39711 40155 57053 333 6///7=
71079 42974 42212 10066 21038 39935 40221 57044 333 6///7=
71083 42974 43311 11111 21138 30113 40156 57009 333 6///7=
71084 454// 73015 333 6///7=
71085 45966 22422 10173 21061 38870 40242 57019 333 6///7=
71087 46/// /3109 10102 21013 39897 40096 53014 333 6///7=
71090 45966 01202 11173 21203 30064 40100 52005 333 6///7=
71092 462// 72706 11220 21244 39437 40126 54000 333 6///7=
71093 45/// ///// 11185 39583 40091 51008 333 6///7=
71094 462// 82605 333 6///7=
71095 45966 01905 11234 21271 30034 40118 52004 333 6///7=
71096 45/// /1703 11173 39352 40098 51007 333 6///7=
71097 469// 01905 333 6///7=
71098 26/// /1707 10132 20042 39666 40184 56014 333 60007=
71101 26/// /0406 10101 20064 30291 40299 51009 333 60007=
71102 26/// ///// 10200 21030 333 60007=
71104 42974 72202 10135 21052 39140 40243 58013 333 6///7=
71105 46/// ///// 10223 21077 333 6///7=
71106 26/// /1704 10061 21028 333 60007=
71108 42983 73503 10219 20007 30145 40217 58020 333 6///7=
71109 42980 43310 10134 20066 30233 40259 57005 333 6///7=
71111 469// ///// 333 6///7=
71112 26/// ///// 333 60007=
71113 26/// /2503 10213 20009 30187 40210 58024 333 60007=
71114 26/// /2606 10222 20012 30155 40203 58032 333 60007=
71115 26/// /2903 10182 21004 39662 40238 57033 333 60007=
71121 25864 42507 10196 21061 39376 40189 58027 333 60007=
71122 26/// /2308 10155 21141 38648 40243 56025 333 60007=
71123 42974 71606 10183 21009 39339 40198 57028 333 6///7=
71125 42974 72416 10200 20009 39597 40176 56034 333 6///7=
71127 26/// /2105 10197 21081 39292 40171 56027 333 60007=
71129 42974 52218 10203 21068 39402 40226 57030 333 6///7=
71130 45966 02018 10162 20046 39758 40214 57035 333 6///7=
71131 26/// /2319 10143 39015 40270 57024 333 60007=
71132 45966 72503 10094 21021 39769 40080 57035 333 6///7=
71133 26/// /2314 10192 21038 39489 40186 58029 333 60007=
71135 26/// /2412 10158 21066 39203 40291 58023 333 60007=
71136 26/// /3107 10137 21028 39788 40293 58023 333 60007=
71137 26/// /2114 10170 21063 39334 40284 58025 333 60007=
71139 26/// /2213 10134 21068 38806 40264 56021 333 60007=
71140 42774 13107 10137 21015 39789 40295 57024 333 6///7=
71142 45966 02219 10177 21042 39290 40259 57026 333 6///7=
71145 42574 02202 10053 21064 39974 40273 58024 333 6///7=
71147 26/// /0007 10111 21037 333 60007=
71148 26/// /3407 10117 21048 39719 40304 58016 333 60007=
71150 26/// /3008 10132 21032 39603 40287 58025 333 60007=
71151 26/// /3408 10066 21061 39774 40282 56006 333 60007=
71153 26/// /2811 10198 21122 333 60007=
71154 26/// /2220 10154 21083 333 60007=
71155 26/// ///// 10187 20000 333 60007=
71157 26/// /2107 10203 21066 39394 40187 56028 333 60007=
71158 26/// /2705 10023 21047 30008 40289 58028 333 60007=
71160 27/// /0306 10036 21016 39839 40050 56012 7//4/ 333 69907=
71161 26/// /2506 10175 20012 30048 40194 58018 333 60007=
71163 46/// /3506 10074 21032 39766 40102 51022 333 6///7=
71165 26/// /3609 10028 21032 39843 40120 53024 333 60007=
71167 45966 01803 10158 21075 39115 40206 57024 333 6///7=
71168 26/// /0213 10082 20059 39668 40246 52006 333 69977=
71170 26/// /3010 10139 21011 39814 40286 57026 333 60007=
71176 45/// ///// 39427 53014 333 6///7=
71180 26/// /1711 10114 21039 30166 40205 56013 333 60007=
71183 26/// /2407 10213 20033 30148 40187 56021 333 60007=
71185 45/// ///// 10043 21081 30127 40151 56007 333 6///7=
71186 46/// ///// 10172 21032 333 6///7=
71187 45966 02706 10222 20007 30160 40207 57031 333 6///7=
71188 42974 60809 10129 21064 30109 40152 55001 333 6///7=
71189 46/// /2812 10157 333 6///7=
71193 26/// /3408 10136 21019 39798 40156 56013 333 60007=
71196 26/// /1902 10180 20036 39982 40179 58020 333 60007=
71200 26/// /0213 10190 20004 30134 40218 57012 333 60007=
71201 26/// ///// 10154 20069 333 60007=
71203 45966 01605 10183 20010 39726 40244 57037 333 6///7=
71207 26/// /2402 10229 21003 30148 40211 56027 333 60007=
71208 46/// /2709 10014 21088 39989 40272 58004 333 6///7=
71211 26/// /1004 10144 20061 30209 40218 58017 333 60007=
71215 26/// /1606 10214 21017 39903 40245 56033 333 60007=
71216 26/// /2502 10160 21024 39642 40258 56041 333 60007=
71218 26/// /3305 10190 20079 39810 40236 56038 333 60007=
71222 26/// /2508 10059 21029 39284 40253 55000 333 60007=
71230 26/// /2610 10099 21044 39307 40194 56013 333 60007=
71231 26/// /2114 10205 21056 333 60007=
71232 26/// /2509 10183 21151 38733 40212 56023 333 60007=
71234 26/// /2513 10228 21133 39047 40224 56023 333 60007=
71235 26/// /2207 10196 21077 333 60007=
71236 26/// /3015 10157 21109 333 60007=
71238 26/// /2702 10184 21061 333 60007=
71239 26/// /2604 10128 21044 39828 40290 58023 333 60007=
71240 26/// /1916 10215 21099 39384 40220 56026 333 60007=
71242 26/// /2307 10179 21001 333 60007=
71243 26/// /2113 10222 21100 39163 40213 56027 333 60007=
71247 45966 02117 10210 21086 39384 40233 57033 333 6///7=
71248 26/// /2507 10174 21104 38922 40221 56023 333 60007=
71249 26/// /1609 10192 21019 333 60007=
71250 26/// /2410 10118 21054 30080 40216 57006 333 60007=
71251 46/// /2314 10222 21050 39310 40227 56032 333 6///7=
71252 26/// /1904 10144 21126 38650 40220 58010 333 60007=
71254 26/// /2005 10191 21024 39325 40195 58025 333 60007=
71260 42774 73016 10043 21007 39950 40188 53003 333 6///7=
71261 26/// /3207 10140 20070 39914 40171 56014 333 60007=
71263 42674 81809 10125 20079 39908 40196 56013 333 6///7=
71265 45766 80806 10066 20038 30104 40198 57014 333 6///7=
71270 26/// /0601 10154 20078 39963 40176 58015 333 60007=
71271 26/// /2311 10181 21031 333 60007=
71272 45966 02010 10048 21035 39800 40154 57048 333 6///7=
71273 26/// /2410 10202 21054 39525 40175 58032 333 60007=
71282 46/// /1713 10072 20036 39917 40187 56013 333 6///7=
71284 26/// ///// 10183 21041 333 60007=
71290 45966 41511 10080 20000 39412 40248 57011 333 6///7=
71319 26/// /2208 10122 21028 39339 40193 55009 333 60007=
71323 26/// /2405 10198 20007 39920 40199 56016 333 60007=
71368 45666 81512 10148 20054 39800 40186 57022 333 6///7=
71370 26/// /2207 10179 20026 30052 40187 56019 333 60007=
71371 45966 82208 10214 20043 30157 40191 57019 333 6///7=
71372 26/// /1914 10208 21016 333 60007=
71373 26/// /1806 10205 21040 39927 40197 56017 333 60007=
71375 46/// /2612 10054 333 6///7=
71376 26/// /2404 10164 20039 39907 40195 56018 333 60007=
71377 26/// /2506 10209 20037 30141 40189 56020 333 60007=
71378 26/// /1805 10176 21077 39973 40181 56014 333 60007=
71379 26/// /2509 10132 21002 39976 40144 56013 333 60007=
71382 26/// /2108 10118 21074 39262 40182 55009 333 60007=
71384 26/// /2408 10178 20025 30179 40186 56019 333 60007=
71385 46/// /2115 10071 20012 333 6///7=
71386 26/// /2903 10148 21050 39963 40167 56012 333 60007=
71388 46/// /2907 10159 21062 39978 40164 56012 333 6///7=
71389 26/// /2202 10181 20042 333 60007=
71390 26/// /2207 10170 333 60007=
71391 26/// ///// 10144 20045 333 60007=
71392 26/// /2207 10176 333 60007=
71395 42974 32113 10159 21015 30061 40240 56010 333 6///7=
71398 45666 82811 10046 21036 30191 40202 52004 333 6///7=
71400 26/// /2207 10122 21066 30045 40175 56012 333 60007=
71402 26/// /2212 10090 21053 30048 40162 56010 333 60007=
71410 45966 02011 10045 21050 39980 40264 57034 333 6///7=
71411 26/// /2119 10072 20029 30254 40267 55006 333 60007=
71412 26/// /2318 10185 21056 30194 40204 56012 333 60007=
71415 26/// /2508 10187 21060 30208 40211 56010 333 60007=
71424 46/// /2310 333 6///7=
71425 26/// /2615 10095 21023 30110 40146 56005 333 60007=
71426 26/// /2121 10099 20011 333 60007=
71427 26/// /2620 10042 21013 30146 40153 56008 333 60007=
71428 26/// /2814 10067 20016 30149 40155 56006 333 60007=
71429 26/// /2509 10076 21010 30132 40151 56008 333 60007=
71430 26/// /1201 10135 20007 30102 40198 56022 333 60007=
71431 26/// /1004 10090 20038 30094 40190 58020 333 60007=
71432 46/// /0805 10074 20049 30098 333 6///7=
71434 26/// /3311 11032 21111 30172 40239 53006 333 60007=
71435 26/// /3506 10035 21051 39654 40254 51008 333 60007=
71436 45766 81506 10156 20078 39961 40195 57013 333 6///7=
71437 46/// ///// 10139 20072 30095 40190 56017 333 6///7=
71440 26/// /2009 10197 21101 333 60007=
71441 26/// /3614 10115 21054 39980 40293 58014 333 60007=
71442 26/// /1603 10101 21048 39975 40293 58025 333 60007=
71443 26/// /2514 10156 21023 39837 40250 58034 333 60007=
71444 26/// /2407 10118 21035 39525 40287 57022 333 60007=
71445 26/// /1506 10009 21036 30000 40283 58031 333 60007=
71446 26/// /2218 10170 21049 39282 40260 56027 333 60007=
71447 26/// /3107 10151 21070 39745 40293 58023 333 60007=
71448 26/// /3407 10072 21079 39959 40294 57014 333 60007=
71450 26/// /2310 10176 21065 39535 40253 58030 333 60007=
71451 26/// /2307 10158 39713 40135 56046 333 60007=
71452 26/// /2808 10161 21050 39572 40287 56028 333 60007=
71453 26/// /2121 10183 21064 39343 40255 57028 333 60007=
71454 26/// /2411 10189 21060 39507 40190 58030 333 60007=
71455 26/// /2418 10186 21043 39455 40249 56030 333 60007=
71456 26/// /2518 10167 20023 39631 40226 57031 333 60007=
71457 26/// /2012 10226 21070 39331 40214 57034 333 60007=
71458 46/// /2206 10191 21007 39430 40188 58027 333 6///7=
71459 26/// /2416 10209 21099 39428 40231 57029 333 60007=
71460 46/// /0804 10042 20008 39956 40198 56011 333 6///7=
71461 26/// /2609 10087 21008 333 60007=
71463 46/// /2203 10104 20070 39973 40195 58014 333 6///7=
71465 46/// ///// 333 6///7=
71473 26/// /2803 10149 20069 30192 40222 58014 333 60007=
71474 26/// /1604 10133 21055 39014 40237 58012 333 60007=
71475 26/// /1501 10201 21006 30128 40221 58023 333 60007=
71477 26/// /3111 10090 20061 30292 40300 51009 333 60007=
71481 26/// /2709 10193 21080 333 60007=
71485 26/// /2915 10108 20087 30245 40263 50000 333 60007=
71486 26/// /2305 10181 21104 39024 40218 56025 333 60007=
71487 26/// /2414 10178 21065 39409 40277 56027 333 60007=
71488 26/// /3108 10170 21114 38695 40234 56018 333 60007=
71496 26/// /2317 10199 21048 39614 40220 58029 333 60007=
71498 26/// /2108 10200 21069 333 60007=
71499 45966 02414 10137 21030 39494 40114 57031 333 6///7=
71503 46/// /1405 10013 21060 39890 40160 51018 333 6///7=
71510 26/// /2218 10198 21069 39525 40229 56032 333 60007=
71511 26/// /2415 10173 21015 39611 40247 57027 333 60007=
71513 45966 02309 10040 21010 30131 40146 57001 333 6///7=
71514 26/// /2516 10179 21068 39569 40270 56028 333 60007=
71516 26/// /2410 10172 21072 39375 40281 58026 333 60007=
71524 26/// /2308 10213 20036 30168 40193 56019 333 60007=
71527 45966 00209 10047 21069 39764 40276 57005 333 6///7=
71538 42348 81110 10111 20101 39939 40168 57013 333 6///7=
71550 26/// /2611 10157 21047 39894 40271 56032 333 60007=
71551 26/// /2415 10196 21050 39584 40224 58033 333 60007=
71552 46/// /3205 10031 21032 333 6///7=
71564 26/// /3407 10114 21067 39928 40296 58016 333 60007=
71569 26/// /2410 10178 21077 39559 40262 56029 333 60007=
71573 26/// /1404 10115 20082 39904 40184 56012 333 60007=
71577 46/// /1305 10001 21031 333 6///7=
71578 26/// /2608 333 60007=
71579 26/// /0205 10096 21056 30007 40293 58017 333 60007=
71586 26/// /2508 10190 21036 39697 40157 56035 333 60007=
71587 45966 03007 10061 21063 39911 40275 57017 333 6///7=
71588 46/// /2302 10116 333 6///7=
71589 26/// /2411 10121 21075 30053 40185 57009 333 60007=
71597 45966 03114 11195 21223 30065 40129 57003 333 6///7=
71599 26/// /2508 10148 21078 30105 40261 55008 333 60007=
71603 42974 82215 10091 20006 30224 40278 56010 333 6///7=
71604 26/// /2613 10109 21053 333 60007=
71605 26/// /1502 10195 20047 30074 40225 58016 333 60007=
71607 26/// /1911 10188 20002 30186 40219 55007 333 60007=
71608 26/// /3009 10146 20097 30218 40221 58015 333 60007=
71609 42974 72116 10082 20030 30107 40243 56009 333 6///7=
71610 45966 71908 10203 21038 39909 40203 57017 333 6///7=
71611 26/// /1707 10214 21015 333 60007=
71612 26/// /2103 10212 20025 30102 40191 56018 333 60007=
71614 26/// /1509 10215 20010 30124 40189 56017 333 60007=
71616 26/// /2210 10198 20045 30076 40195 56019 333 60007=
71618 47666 22212 10033 21032 30148 40186 57029 7004/ 333 6///7=
71619 26/// /2705 10148 21048 30111 40168 56010 333 60007=
71623 42569 81512 10116 20081 39851 40186 56012 333 6///7=
71624 42774 81612 10151 20043 39981 40192 55017 333 6///7=
71625 25964 41004 10171 20034 30021 40181 56021 333 69957=
71627 42983 72308 10211 20046 30147 40191 56020 333 6///7=
71628 42974 72011 10178 20044 30059 40198 56013 333 6///7=
71631 26/// /1506 10138 20047 39691 40186 56017 333 60007=
71632 26/// /1914 10090 21036 39710 40151 56054 333 60007=
71633 42574 83302 10099 20040 39910 40181 56015 333 6///7=
71634 26/// /2607 10184 21062 30035 40187 56008 333 60007=
71638 26/// /2802 10187 20030 30120 40225 58016 333 60007=
71642 42874 73309 10134 21032 39630 40174 55001 333 6///7=
71675 45966 02809 10015 21098 39985 40268 57004 333 6///7=
71700 45966 01714 10193 20021 30176 40202 57015 333 6///7=
71701 25/64 /1912 10193 20018 30143 40205 55014 333 60007=
71702 26/// /2117 10120 20023 30183 40198 55011 333 60007=
71705 42974 52217 10200 21030 30114 40201 56012 333 6///7=
71706 42974 62414 10158 21048 30146 40206 56009 333 6///7=
71707 42974 42313 10174 21035 30142 40219 55001 333 6///7=
71709 42980 62415 10146 20002 30173 40187 57014 333 6///7=
71710 26/// /2315 10144 21006 30176 40185 57014 333 60007=
71712 26/// /2607 10216 20036 30132 40191 56017 333 60007=
71713 26/// /2213 10154 20025 30140 40178 55013 333 60007=
71714 26/// /2706 10161 20048 30115 40189 56017 333 60007=
71715 26/// /2108 10145 21002 39995 40175 56016 333 60007=
71716 25964 42507 10154 20007 39990 40197 56017 333 60007=
71717 45966 00603 10129 21031 38937 40239 57008 333 6///7=
71718 42983 72209 10154 21014 30098 40163 57012 333 6///7=
71719 26/// /2214 10107 21037 30163 40169 56010 333 69937=
71720 26/// ///// 10156 20023 30083 40236 58017 333 60007=
71721 26/// /2403 10174 20033 39942 40186 56017 333 60007=
71723 26/// /2702 10173 20039 30175 40185 56021 333 60007=
71724 26/// /2307 10162 20043 30176 40183 56021 333 60007=
71725 26/// /1808 10148 21059 39762 40175 56013 333 60007=
71726 26/// /2206 10151 21044 39640 40175 56015 333 60007=
71728 42986 72709 10173 21049 39945 40163 58012 333 6///7=
71730 42980 71909 10144 20022 39752 40172 57013 333 6///7=
71731 45966 82011 10120 20003 39735 40182 57011 333 6///7=
71733 26/// /1908 10134 20021 39752 40168 56013 333 60007=
71734 26/// /2206 10154 21053 39778 40164 56012 333 60007=
71736 26/// /2322 10171 21081 38874 40245 56020 333 60007=
71738 42974 72503 10086 21020 39829 40184 58007 333 6///7=
71739 42874 73408 10136 21012 39797 40156 56013 333 6///7=
71747 26/// /3306 10054 21046 39780 40261 51004 333 60007=
71748 26/// /1006 10051 21071 30009 40298 56018 333 60007=
71751 46/// /3318 10076 21019 39949 40207 56005 333 6///7=
71768 26/// /1206 10192 21015 39695 40238 58040 333 60007=
71769 26/// /2611 10118 20076 30210 40228 58015 333 60007=
71770 26/// /1402 10181 20006 39500 40268 57037 333 60007=
71772 26/// /3412 10119 20064 30215 40227 58015 333 60007=
71774 26/// ///// 10176 20000 39780 40214 58012 333 60007=
71775 26/// /2605 10223 20031 30211 40217 58021 333 60007=
71776 26/// /0306 10171 20005 39620 40261 56038 333 60007=
71777 26/// ///// 10202 21028 39973 40220 57032 333 60007=
71778 46/// /1413 10132 20047 30181 40219 58012 333 6///7=
71781 46/// /3303 10126 20071 30207 40232 58017 333 6///7=
71782 26/// /1710 10159 21071 38948 40275 56029 333 60007=
71783 26/// /0208 10165 20038 30148 40221 57013 333 60007=
71784 26/// /1701 10176 20033 30018 40223 58016 333 60007=
71785 46/// /2604 10186 20083 30207 40223 57020 333 6///7=
71786 26/// /2519 10100 21097 38443 40264 56024 333 60007=
71799 42983 80307 10184 20045 30200 40224 57016 333 6///7=
71800 26/// /2521 30208 58009 333 60007=
71801 42974 62516 10119 21054 30046 40220 57006 333 6///7=
71803 42980 52512 10124 21075 39996 40182 56012 333 6///7=
71805 22980 22306 10049 20005 30224 40233 56012 80001 333 60007 82073 90710 91113 93100 555 60005=
71808 42969 62104 10010 21013 30089 40136 55005 333 6///7=
71809 42974 32215 10110 21049 30146 40174 56002 333 6///7=
71810 26/// /2620 10094 21042 30074 40140 56009 333 60007=
71813 26/// /2208 10043 21014 30130 40143 55001 333 60007=
71815 42974 32705 10051 21006 30168 40199 56007 333 6///7=
71818 42474 80407 10077 21003 30072 40090 53009 333 6///7=
71819 45966 42419 10046 21020 30088 40129 57001 333 6///7=
71821 26/// /3508 10098 21014 39831 40174 55005 333 60007=
71823 26/// /2608 10009 21006 39780 40161 51005 333 60007=
71825 45766 82807 10049 21012 39476 40144 52011 333 6///7=
71826 26/// /2610 11159 21189 30078 40123 53001 333 60007=
71827 42474 82713 11016 21052 39932 40179 53005 333 6///7=
71829 26/// /2315 10126 21040 39991 40150 56011 333 60007=
71831 42774 70310 10098 21005 39900 40179 55003 333 6///7=
71832 26/// /0109 10061 21020 39878 40205 52013 333 60007=
71834 42674 83610 10034 21032 39800 40233 52014 333 6///7=
71840 26/// /3608 10030 21119 39877 40303 57017 333 60007=
71842 42674 43410 10030 21062 39800 40278 51001 333 6///7=
71845 42674 23405 10024 21070 39784 40264 58002 333 6///7=
71846 26/// /3507 10001 21070 39942 40261 51006 333 60007=
71848 46/// ///// 10226 21100 333 6///7=
71850 42974 03408 10066 21071 39778 40283 57006 333 6///7=
71851 26/// /3006 10093 21062 39961 40300 58021 333 60007=
71854 42674 13406 10059 21061 39807 40287 57007 333 6///7=
71855 26/// /3606 10056 21086 39740 40272 57005 333 60007=
71856 26/// /2304 10100 21060 39944 40195 56008 333 60007=
71857 26/// ///// 10196 21020 333 60007=
71858 26/// /0703 10083 21020 39969 40254 58042 333 60007=
71861 26/// /2710 10159 21045 39549 40277 58025 333 60007=
71862 42974 42409 10153 21047 39592 40299 57025 333 6///7=
71865 26/// /2516 10167 21030 39571 40249 57027 333 60007=
71867 42574 61615 10123 21010 39880 40216 57046 333 6///7=
71868 26/// /2412 10161 21020 39788 40229 57035 333 60007=
71869 42974 42514 10190 21004 39693 40214 57034 333 6///7=
71871 45966 02515 10206 21033 39400 40196 57028 333 6///7=
71872 46/// /0113 11215 21235 39995 40093 53001 333 6///7=
71876 45966 02316 10204 21016 39557 40216 57029 333 6///7=
71877 42986 82109 10200 21106 38943 40220 56023 333 6///7=
71878 42974 71707 10165 21024 39148 40218 57025 333 6///7=
71880 42982 60907 10173 21047 39165 40266 57036 333 6///7=
71882 26/// /1707 10166 21021 39721 40257 56043 333 60007=
71883 26/// /1303 10176 21055 39422 40240 56032 333 60007=
71884 26/// /2113 10088 20016 30231 40276 57010 333 60007=
71886 26/// /2513 10161 39657 40265 58027 333 60007=
71887 42986 72811 10177 20006 39805 40223 57039 333 6///7=
71889 42974 71712 10211 20002 39823 40238 57040 333 6///7=
71890 26/// /2423 10067 21009 30125 40153 56011 333 60007=
71892 42983 83112 10142 20099 30221 40226 58016 333 6///7=
71894 26/// /3107 10133 20087 30167 40176 56058 333 60007=
71896 45966 03305 10131 21048 39416 40246 57012 333 6///7=
71900 46/// /1605 10024 20005 30069 40082 53012 333 6///7=
71902 42374 80807 10000 20000 30078 40087 52016 333 6///7=
71904 26/// ///// 10180 20003 333 60007=
71905 26/// /1408 10179 21070 39320 40252 56043 333 60007=
71906 42474 83511 11053 21080 30088 40140 52017 333 6///7=
71911 469// 00208 11202 21240 30049 40107 57004 333 6///7=
71912 42474 62211 10040 21028 30045 40231 57034 333 6///7=
71915 42769 62310 11121 21157 30047 40131 56020 333 6///7=
71917 42974 01602 11212 21257 30074 40089 52002 333 6///7=
71918 45/// /2920 11202 39668 40097 56007 333 6///7=
71920 26/// /2111 10071 20046 30278 40284 56010 333 60007=
71922 42974 6//// 10182 21021 39700 40163 57037 333 6///7=
71923 26/// /1715 10027 21031 39664 40104 56045 333 60007=
71924 42669 50507 11160 21221 39995 40087 51010 333 6///7=
71925 42166 63309 11165 21198 30131 40174 55000 333 6///7=
71926 42982 72803 11147 21193 30137 40162 57014 333 6///7=
71928 26/// /1404 10138 20011 39052 40215 56023 333 60007=
71930 42974 83110 10153 21045 39275 40201 56019 333 6///7=
71931 46/// /2515 10138 21069 30154 40166 56006 333 6///7=
71932 26/// /1906 10145 20032 39803 40192 58014 333 60007=
71933 26/// /2702 10068 21001 39424 40257 58005 333 60007=
71934 42774 82711 10105 21012 39830 40083 53001 333 6///7=
71935 42774 62712 10100 20004 39895 40099 51017 333 6///7=
71936 42874 63211 10058 21024 39820 40077 52017 333 6///7=
71938 42266 33202 11168 21188 30175 40205 51004 333 6///7=
71940 42982 82510 10113 20005 39402 40207 57018 333 6///7=
71943 42785 72520 10122 21033 39364 40193 56011 333 6///7=
71945 42983 52915 10130 21051 39706 40172 55001 333 6///7=
71946 42774 73307 10125 21025 39899 40108 52013 333 6///7=
71948 469// 00917 11134 21154 30061 40177 52001 333 6///7=
71949 26/// /2005 10088 21068 39307 40169 51001 333 60007=
71950 45866 82603 10119 21004 39617 40247 57016 333 6///7=
71951 42780 41805 10132 20013 30002 40270 56011 333 6///7=
71952 26/// /2402 10107 21015 39395 40248 58013 333 60007=
71954 26/// /1808 10100 21009 39826 40203 58047 333 60007=
71956 26/// /1907 10106 20026 39944 40176 55007 333 60007=
71960 469// 00913 11101 21127 30020 40155 57008 333 6///7=
71963 26/// ///// 11103 21125 39700 40109 56024 333 60017=
71964 42786 72217 10077 21043 39338 40192 50002 333 6///7=
71965 42680 32107 10115 21056 39515 40129 56011 333 6///7=
71966 26/// /1606 10117 21092 39647 40100 56022 333 60007=
71967 26/// /2010 10200 20030 30097 40202 56018 333 60007=
71968 469// 00907 11082 21121 30027 40092 57011 333 6///7=
71972 45/// ///// 11115 39666 40138 53011 333 6///7=
71975 45/// ///// 11177 39355 40099 50006 333 6///7=
71979 46/// /2505 10143 21123 38557 40205 56009 333 6///7=
71981 26/// /2416 10196 21102 333 60007=
71982 26/// /0805 10175 20028 333 60007=
71984 26/// /3402 11152 21203 30177 40186 53002 333 60007=
71985 46/// ///// 11082 21121 30126 40132 56007 333 6///7=
71986 26/// /2220 10205 21098 333 60007=
78062 42469 79902 10272 20241 40132 83923 333 83915 83462 85075=
78073 42565 41305 10305 20232 40144 82903 333 82920 83070=
78388 41572 60409 10291 20231 30129 40138 70500 86931 333 58000 86820 81922=
78397 41456 51011 10277 20237 30131 40133 72911 85963 333 58005 85818 84920=
78583 42578 40908 10309 20251 40136 83201 333 01307 58006 83826=
78700 32570 11812 10354 20219 30102 40107 81200 333 56000 58006 81830=
78703 31564 50813 10312 20250 30130 40132 70544 82902 333 56000 58004 81920 81820 84072=
78705 31560 53602 10307 20248 30111 40127 57019 70544 83235 333 56242 58004 83824 85070=
78706 31570 73604 10324 20246 30130 40135 70544 85930 333 56600 58020 82928 83828 85358=
78707 31560 50908 10324 20182 39379 40102 70544 85200 333 56200 58011 85825=
78708 31565 40315 10337 20261 30086 40115 70544 82201 333 56800 58008 82830=
78711 31560 60704 10310 20228 30127 40142 70544 82201 333 56300 58016 82828 84075=
78717 31560 53608 10280 20154 38941 40105 57020 700444 83232 333 56100 58003 83830 85075=
78718 31660 53608 10318 20224 3//// 4//// 70444 84261 333 56700 84840=
78719 31565 30204 10252 20129 38369 40108 70444 83101 333 56800 58018 83824=
78720 31562 40610 10290 20086 39020 40099 57025 70544 84201 333 56100 58010 84832=
78724 31570 50212 10402 20212 30073 40130 70544 85200 333 56100 59008 85834=
78866 42475 20812 10278 20204 30153 40158 57005 82801 333 59008 82818=
78897 44586 81208 10271 20216 40145 55003 700// 333 59012=
78962 41464 71505 10263 20210 30115 40131 71582 85878 333 02399 59001 82816 84638 85358=
78970 41460 70912 10261 20221 30103 40128 71522 87800 333 02299 58003 83818 86640=
78988 22980 11114 10291 20224 30106 40116 57013 81141 333 59001 60007 81823=